Time;durP1;ratioP1;P1;durP2;ratioP2;P2;SDS_P1;SDS_P2;PMS_P1;PMS_P2;Temp;Humidity;BMP_temperature;BMP_pressure;BME280_temperature;BME280_humidity;BME280_pressure;Samples;Min_cycle;Max_cycle;Signal;HPM_P1;HPM_P2
2023/12/27 00:00:47;;;;;;;2.20;1.40;;;;;;;;;;5029046;28;20041;-69
2023/12/27 00:03:12;;;;;;;1.57;1.17;;;;;;;;;;5020604;28;20159;-70
2023/12/27 00:05:39;;;;;;;1.90;1.47;;;;;;;;;;5029154;28;20483;-70
2023/12/27 00:08:05;;;;;;;4.40;1.30;;;;;;;;;;5032108;28;20087;-70
2023/12/27 00:10:31;;;;;;;4.27;1.70;;;;;;;;;;5049536;28;20120;-69
2023/12/27 00:12:57;;;;;;;2.87;0.90;;;;;;;;;;5032196;28;20131;-68
2023/12/27 00:15:22;;;;;;;2.47;1.30;;;;;;;;;;5049796;28;20040;-71
2023/12/27 00:17:48;;;;;;;3.00;1.17;;;;;;;;;;5012593;28;20032;-69
2023/12/27 00:20:13;;;;;;;1.30;1.20;;;;;;;;;;5030774;28;20035;-69
2023/12/27 00:22:40;;;;;;;1.80;1.63;;;;;;;;;;5030309;28;20044;-69
2023/12/27 00:25:07;;;;;;;4.70;1.60;;;;;;;;;;5012377;28;20655;-69
2023/12/27 00:27:33;;;;;;;3.10;1.30;;;;;;;;;;5030409;28;20065;-70
2023/12/27 00:29:59;;;;;;;6.73;1.43;;;;;;;;;;5012287;28;20030;-69
2023/12/27 00:32:24;;;;;;;2.33;1.70;;;;;;;;;;5023037;28;20055;-68
2023/12/27 00:34:50;;;;;;;2.70;1.40;;;;;;;;;;5049613;28;20043;-70
2023/12/27 00:37:16;;;;;;;4.53;1.30;;;;;;;;;;5048356;28;20163;-71
2023/12/27 00:39:42;;;;;;;2.60;1.37;;;;;;;;;;5031648;28;20048;-70
2023/12/27 00:42:07;;;;;;;5.97;1.80;;;;;;;;;;5049680;28;20108;-70
2023/12/27 00:44:33;;;;;;;2.90;1.27;;;;;;;;;;5019042;28;20040;-70
2023/12/27 00:46:59;;;;;;;4.50;1.50;;;;;;;;;;5029961;28;20120;-69
2023/12/27 00:49:24;;;;;;;4.43;2.00;;;;;;;;;;5012187;28;20071;-68
2023/12/27 00:51:50;;;;;;;2.90;2.03;;;;;;;;;;5011969;28;20400;-68
2023/12/27 00:54:18;;;;;;;5.30;1.70;;;;;;;;;;5012516;28;20037;-68
2023/12/27 00:56:45;;;;;;;5.00;1.63;;;;;;;;;;5012151;28;20065;-69
2023/12/27 00:59:10;;;;;;;3.83;1.57;;;;;;;;;;5029142;28;20029;-70
2023/12/27 01:01:36;;;;;;;6.97;2.38;;;;;;;;;;5031447;28;20040;-69
2023/12/27 01:04:02;;;;;;;6.73;1.43;;;;;;;;;;5027589;28;20081;-70
2023/12/27 01:06:28;;;;;;;4.27;2.00;;;;;;;;;;5028031;28;20127;-68
2023/12/27 01:08:54;;;;;;;4.75;1.75;;;;;;;;;;5029151;28;20248;-68
2023/12/27 01:11:19;;;;;;;2.22;1.70;;;;;;;;;;5027995;28;20036;-70
2023/12/27 01:13:45;;;;;;;6.80;1.80;;;;;;;;;;5011756;28;20056;-70
2023/12/27 01:16:10;;;;;;;1.77;1.33;;;;;;;;;;5011378;28;20037;-68
2023/12/27 01:18:36;;;;;;;1.57;1.40;;;;;;;;;;5011550;28;20529;-69
2023/12/27 01:21:02;;;;;;;6.00;1.90;;;;;;;;;;5029204;28;20040;-70
2023/12/27 01:23:29;;;;;;;3.33;1.63;;;;;;;;;;5032356;28;20026;-68
2023/12/27 01:25:54;;;;;;;4.07;1.93;;;;;;;;;;5015532;28;20029;-69
2023/12/27 01:28:21;;;;;;;4.70;2.20;;;;;;;;;;5033643;28;20040;-67
2023/12/27 01:30:47;;;;;;;2.20;1.90;;;;;;;;;;5032247;28;20113;-69
2023/12/27 01:33:13;;;;;;;4.60;2.40;;;;;;;;;;5032367;28;20120;-67
2023/12/27 01:35:38;;;;;;;5.73;2.00;;;;;;;;;;5031944;28;20064;-72
2023/12/27 01:38:04;;;;;;;5.37;2.10;;;;;;;;;;5031949;28;20035;-70
2023/12/27 01:40:30;;;;;;;3.77;2.37;;;;;;;;;;5028308;28;20362;-69
2023/12/27 01:42:56;;;;;;;8.03;2.40;;;;;;;;;;5015386;28;20345;-68
2023/12/27 01:45:21;;;;;;;6.67;2.10;;;;;;;;;;5015220;28;20037;-68
2023/12/27 01:47:48;;;;;;;2.83;1.87;;;;;;;;;;5015436;28;20061;-68
2023/12/27 01:50:15;;;;;;;3.37;1.77;;;;;;;;;;5032881;28;20029;-70
2023/12/27 01:52:42;;;;;;;1.97;1.57;;;;;;;;;;5015311;28;20035;-69
2023/12/27 01:55:10;;;;;;;2.43;1.90;;;;;;;;;;5023607;28;20029;-69
2023/12/27 01:57:39;;;;;;;4.30;1.97;;;;;;;;;;5032953;28;20080;-69
2023/12/27 02:00:07;;;;;;;5.50;2.20;;;;;;;;;;5031565;28;20053;-69
2023/12/27 02:02:33;;;;;;;2.20;1.50;;;;;;;;;;5015375;28;20115;-69
2023/12/27 02:04:59;;;;;;;6.40;1.87;;;;;;;;;;5014722;28;20486;-69
2023/12/27 02:07:25;;;;;;;3.67;1.73;;;;;;;;;;5033262;28;20029;-69
2023/12/27 02:09:51;;;;;;;6.17;1.43;;;;;;;;;;5032172;28;20036;-70
2023/12/27 02:12:25;;;;;;;2.20;1.50;;;;;;;;;;5033945;28;20059;-68
2023/12/27 02:14:51;;;;;;;4.10;1.60;;;;;;;;;;5031837;28;20048;-69
2023/12/27 02:17:17;;;;;;;2.97;1.70;;;;;;;;;;5031515;28;20025;-70
2023/12/27 02:19:44;;;;;;;2.00;1.23;;;;;;;;;;5031554;28;20117;-68
2023/12/27 02:22:15;;;;;;;5.80;1.80;;;;;;;;;;5032231;28;20164;-70
2023/12/27 02:24:41;;;;;;;7.10;2.80;;;;;;;;;;5014948;28;20036;-69
2023/12/27 02:27:07;;;;;;;4.13;1.83;;;;;;;;;;5015032;28;20026;-69
2023/12/27 02:29:34;;;;;;;1.93;1.53;;;;;;;;;;5032831;28;20055;-71
2023/12/27 02:32:00;;;;;;;2.03;1.47;;;;;;;;;;5032186;28;20033;-69
2023/12/27 02:34:25;;;;;;;5.70;2.57;;;;;;;;;;5013583;28;20034;-70
2023/12/27 02:36:51;;;;;;;6.37;1.83;;;;;;;;;;5016171;28;20126;-69
2023/12/27 02:39:17;;;;;;;5.27;1.73;;;;;;;;;;5022881;28;20029;-69
2023/12/27 02:41:43;;;;;;;3.77;1.47;;;;;;;;;;5033158;28;20163;-69
2023/12/27 02:44:08;;;;;;;2.00;1.70;;;;;;;;;;5030984;28;20037;-69
2023/12/27 02:46:34;;;;;;;6.20;1.70;;;;;;;;;;5032412;28;20097;-68
2023/12/27 02:48:59;;;;;;;6.57;1.83;;;;;;;;;;5030766;28;20025;-68
2023/12/27 02:51:25;;;;;;;3.17;1.83;;;;;;;;;;5019548;28;20025;-68
2023/12/27 02:53:51;;;;;;;6.83;2.10;;;;;;;;;;5032200;28;20487;-68
2023/12/27 02:56:17;;;;;;;7.73;2.13;;;;;;;;;;5013800;28;20389;-69
2023/12/27 02:58:43;;;;;;;4.40;2.00;;;;;;;;;;5031755;28;20155;-70
2023/12/27 03:01:08;;;;;;;4.80;1.77;;;;;;;;;;5013743;28;20116;-70
2023/12/27 03:03:34;;;;;;;5.20;1.90;;;;;;;;;;5013725;28;20033;-67
2023/12/27 03:05:59;;;;;;;3.90;1.93;;;;;;;;;;5027843;28;20064;-69
2023/12/27 03:08:26;;;;;;;2.43;1.90;;;;;;;;;;5031667;28;20025;-68
2023/12/27 03:10:52;;;;;;;9.57;2.23;;;;;;;;;;5029965;28;20430;-71
2023/12/27 03:13:19;;;;;;;3.80;1.73;;;;;;;;;;5029973;28;20036;-68
2023/12/27 03:15:44;;;;;;;4.83;2.37;;;;;;;;;;5029855;28;20033;-70
2023/12/27 03:18:11;;;;;;;7.33;2.20;;;;;;;;;;5031004;28;20496;-69
2023/12/27 03:20:37;;;;;;;3.73;2.03;;;;;;;;;;5013833;28;20073;-70
2023/12/27 03:23:03;;;;;;;5.67;2.20;;;;;;;;;;5031373;28;20029;-69
2023/12/27 03:25:29;;;;;;;6.83;2.60;;;;;;;;;;5013704;28;20028;-70
2023/12/27 03:27:54;;;;;;;4.67;2.50;;;;;;;;;;5031995;28;20393;-68
2023/12/27 03:30:20;;;;;;;3.80;2.23;;;;;;;;;;5031021;28;20033;-71
2023/12/27 03:32:45;;;;;;;3.03;1.93;;;;;;;;;;5031010;28;20469;-69
2023/12/27 03:35:13;;;;;;;6.73;2.50;;;;;;;;;;5029893;28;20041;-67
2023/12/27 03:37:39;;;;;;;3.50;1.70;;;;;;;;;;5029701;28;20493;-69
2023/12/27 03:40:05;;;;;;;2.83;1.80;;;;;;;;;;5029536;28;20045;-68
2023/12/27 03:42:31;;;;;;;7.53;1.93;;;;;;;;;;5029498;28;20135;-68
2023/12/27 03:44:57;;;;;;;7.07;2.13;;;;;;;;;;5030737;28;20485;-69
2023/12/27 03:47:22;;;;;;;4.60;1.80;;;;;;;;;;5030545;28;20025;-69
2023/12/27 03:49:48;;;;;;;3.27;1.37;;;;;;;;;;5030312;28;20108;-68
2023/12/27 03:52:14;;;;;;;4.53;1.80;;;;;;;;;;5030363;28;20063;-69
2023/12/27 03:54:41;;;;;;;10.53;1.60;;;;;;;;;;5030863;28;20041;-69
2023/12/27 03:57:07;;;;;;;4.30;1.83;;;;;;;;;;4996575;28;20365;-69
2023/12/27 03:59:36;;;;;;;1.93;1.47;;;;;;;;;;5012811;28;20408;-68
2023/12/27 04:02:02;;;;;;;3.17;1.90;;;;;;;;;;5026681;28;20064;-69
2023/12/27 04:04:28;;;;;;;5.80;1.97;;;;;;;;;;5039713;28;20048;-69
2023/12/27 04:06:54;;;;;;;4.67;2.47;;;;;;;;;;5050600;28;20461;-70
2023/12/27 04:09:20;;;;;;;3.77;1.97;;;;;;;;;;5032445;28;20048;-69
2023/12/27 04:11:45;;;;;;;7.80;1.80;;;;;;;;;;5050429;28;20033;-69
2023/12/27 04:14:14;;;;;;;3.57;1.83;;;;;;;;;;5028868;28;20056;-69
2023/12/27 04:16:41;;;;;;;3.03;1.90;;;;;;;;;;5012667;28;20102;-70
2023/12/27 04:19:08;;;;;;;5.53;1.57;;;;;;;;;;5030480;28;20029;-68
2023/12/27 04:21:34;;;;;;;4.07;1.60;;;;;;;;;;5012477;28;20033;-71
2023/12/27 04:24:01;;;;;;;4.30;2.10;;;;;;;;;;5012521;28;20090;-69
2023/12/27 04:26:26;;;;;;;5.27;1.80;;;;;;;;;;5012330;28;20025;-69
2023/12/27 04:28:52;;;;;;;11.40;2.33;;;;;;;;;;5040073;28;20472;-67
2023/12/27 04:31:17;;;;;;;4.07;1.80;;;;;;;;;;5032061;28;20082;-69
2023/12/27 04:33:43;;;;;;;3.33;1.50;;;;;;;;;;5032553;28;20102;-69
2023/12/27 04:36:10;;;;;;;4.50;1.53;;;;;;;;;;5031597;28;20214;-70
2023/12/27 04:38:37;;;;;;;6.03;1.47;;;;;;;;;;5031905;28;20460;-69
2023/12/27 04:41:11;;;;;;;3.70;1.70;;;;;;;;;;5049798;28;20036;-68
2023/12/27 04:43:36;;;;;;;2.83;1.60;;;;;;;;;;5031584;28;20029;-68
2023/12/27 04:46:06;;;;;;;1.97;1.47;;;;;;;;;;5032079;28;20056;-69
2023/12/27 04:48:32;;;;;;;7.17;3.70;;;;;;;;;;5032041;28;20024;-71
2023/12/27 04:50:58;;;;;;;4.00;1.97;;;;;;;;;;5049951;28;20650;-69
2023/12/27 04:53:24;;;;;;;7.63;2.23;;;;;;;;;;5032280;28;20033;-68
2023/12/27 04:55:49;;;;;;;4.77;1.73;;;;;;;;;;5031775;28;20037;-69
2023/12/27 04:58:15;;;;;;;2.43;1.33;;;;;;;;;;5030538;28;20021;-68
2023/12/27 05:00:41;;;;;;;4.60;1.93;;;;;;;;;;5032035;28;20036;-69
2023/12/27 05:03:07;;;;;;;6.03;1.63;;;;;;;;;;5031562;28;20036;-68
2023/12/27 05:05:34;;;;;;;3.00;1.60;;;;;;;;;;5031534;28;20053;-68
2023/12/27 05:08:00;;;;;;;4.73;1.33;;;;;;;;;;5031376;28;20086;-71
2023/12/27 05:10:26;;;;;;;5.03;1.50;;;;;;;;;;5014674;28;20458;-69
2023/12/27 05:12:54;;;;;;;10.37;2.17;;;;;;;;;;5048945;28;20445;-70
2023/12/27 05:15:20;;;;;;;6.13;1.90;;;;;;;;;;5049087;28;20111;-69
2023/12/27 05:17:46;;;;;;;4.57;1.63;;;;;;;;;;5049729;28;20442;-68
2023/12/27 05:20:11;;;;;;;4.10;1.53;;;;;;;;;;5031437;28;20441;-69
2023/12/27 05:22:39;;;;;;;3.67;1.77;;;;;;;;;;5031964;28;20469;-69
2023/12/27 05:25:08;;;;;;;3.53;1.33;;;;;;;;;;5030281;28;20037;-70
2023/12/27 05:27:34;;;;;;;7.33;1.77;;;;;;;;;;5035810;28;20030;-71
2023/12/27 05:30:01;;;;;;;9.50;1.90;;;;;;;;;;5012986;28;20041;-69
2023/12/27 05:32:27;;;;;;;2.60;1.57;;;;;;;;;;5029763;28;20075;-69
2023/12/27 05:34:53;;;;;;;8.63;2.23;;;;;;;;;;5012251;28;20464;-70
2023/12/27 05:37:20;;;;;;;3.87;1.80;;;;;;;;;;5011505;28;20033;-69
2023/12/27 05:39:46;;;;;;;1.83;1.60;;;;;;;;;;5027513;28;20044;-70
2023/12/27 05:42:13;;;;;;;8.23;1.97;;;;;;;;;;5031047;28;20190;-69
2023/12/27 05:44:39;;;;;;;5.00;1.87;;;;;;;;;;5031275;28;20029;-68
2023/12/27 05:47:08;;;;;;;8.10;2.37;;;;;;;;;;5030978;28;20025;-70
2023/12/27 05:49:34;;;;;;;7.53;2.70;;;;;;;;;;5031474;28;20445;-68
2023/12/27 05:52:00;;;;;;;4.80;2.20;;;;;;;;;;5047624;28;20040;-70
2023/12/27 05:54:26;;;;;;;4.40;2.10;;;;;;;;;;5011249;28;20125;-68
2023/12/27 05:56:53;;;;;;;5.80;2.13;;;;;;;;;;4995012;28;20036;-68
2023/12/27 05:59:22;;;;;;;5.40;1.77;;;;;;;;;;5011032;28;20080;-70
2023/12/27 06:01:52;;;;;;;4.57;2.40;;;;;;;;;;5011479;28;20060;-68
2023/12/27 06:04:18;;;;;;;8.00;2.77;;;;;;;;;;5010672;28;20054;-68
2023/12/27 06:06:46;;;;;;;7.03;2.83;;;;;;;;;;5016804;28;20386;-69
2023/12/27 06:09:12;;;;;;;5.87;2.63;;;;;;;;;;5005226;28;20033;-69
2023/12/27 06:11:37;;;;;;;3.90;1.93;;;;;;;;;;5032749;28;20366;-69
2023/12/27 06:14:04;;;;;;;7.33;2.73;;;;;;;;;;5032582;28;20422;-69
2023/12/27 06:16:30;;;;;;;5.23;2.40;;;;;;;;;;5015262;28;20045;-69
2023/12/27 06:18:57;;;;;;;7.43;2.33;;;;;;;;;;5014964;28;20033;-69
2023/12/27 06:21:23;;;;;;;5.33;2.30;;;;;;;;;;5032742;28;20116;-69
2023/12/27 06:23:50;;;;;;;9.50;2.67;;;;;;;;;;5031696;28;20112;-70
2023/12/27 06:26:17;;;;;;;7.50;2.03;;;;;;;;;;5034619;28;20030;-68
2023/12/27 06:28:45;;;;;;;3.47;2.27;;;;;;;;;;5033352;28;20500;-68
2023/12/27 06:31:10;;;;;;;11.93;2.67;;;;;;;;;;5015254;28;20033;-69
2023/12/27 06:33:36;;;;;;;5.17;2.50;;;;;;;;;;5032706;28;20033;-69
2023/12/27 06:36:05;;;;;;;5.40;2.60;;;;;;;;;;5031076;28;20079;-68
2023/12/27 06:38:31;;;;;;;7.97;2.93;;;;;;;;;;5014659;28;20114;-71
2023/12/27 06:41:00;;;;;;;5.93;2.63;;;;;;;;;;5030962;28;20036;-69
2023/12/27 06:43:26;;;;;;;4.33;2.37;;;;;;;;;;5030952;28;20033;-71
2023/12/27 06:45:52;;;;;;;7.00;2.17;;;;;;;;;;5030886;28;20032;-68
2023/12/27 06:48:18;;;;;;;5.70;3.03;;;;;;;;;;5030103;28;20400;-69
2023/12/27 06:50:44;;;;;;;5.53;2.73;;;;;;;;;;5032096;28;20026;-72
2023/12/27 06:53:10;;;;;;;5.93;2.97;;;;;;;;;;5030503;28;20366;-69
2023/12/27 06:55:37;;;;;;;7.60;2.93;;;;;;;;;;5030870;28;20037;-71
2023/12/27 06:58:03;;;;;;;5.10;2.93;;;;;;;;;;5031279;28;20080;-70
2023/12/27 07:00:29;;;;;;;10.03;2.97;;;;;;;;;;5032781;28;20548;-69
2023/12/27 07:02:55;;;;;;;6.77;3.20;;;;;;;;;;5024366;28;20116;-71
2023/12/27 07:05:23;;;;;;;9.33;3.00;;;;;;;;;;5031414;28;20053;-70
2023/12/27 07:07:48;;;;;;;6.43;2.70;;;;;;;;;;5013881;28;20076;-72
2023/12/27 07:10:14;;;;;;;6.37;3.30;;;;;;;;;;4997302;28;20079;-70
2023/12/27 07:12:40;;;;;;;5.10;2.60;;;;;;;;;;5030898;28;20041;-69
2023/12/27 07:15:07;;;;;;;8.60;2.47;;;;;;;;;;5031488;28;20036;-67
2023/12/27 07:17:33;;;;;;;9.63;2.40;;;;;;;;;;5013523;28;20326;-68
2023/12/27 07:20:00;;;;;;;5.90;2.37;;;;;;;;;;5030730;28;20116;-70
2023/12/27 07:22:26;;;;;;;8.47;2.73;;;;;;;;;;5030737;28;20033;-70
2023/12/27 07:24:52;;;;;;;7.73;2.70;;;;;;;;;;5030563;28;20440;-69
2023/12/27 07:27:18;;;;;;;5.97;2.13;;;;;;;;;;4996779;28;20029;-69
2023/12/27 07:29:45;;;;;;;8.80;2.53;;;;;;;;;;4996514;28;20025;-68
2023/12/27 07:32:13;;;;;;;7.57;3.17;;;;;;;;;;5029748;28;20441;-69
2023/12/27 07:34:39;;;;;;;16.40;10.10;;;;;;;;;;5031080;28;20025;-70
2023/12/27 07:37:04;;;;;;;9.47;4.10;;;;;;;;;;5029586;28;20045;-69
2023/12/27 07:39:32;;;;;;;12.10;3.83;;;;;;;;;;5029449;28;20442;-68
2023/12/27 07:41:59;;;;;;;7.77;3.17;;;;;;;;;;5031110;28;20468;-69
2023/12/27 07:44:26;;;;;;;6.60;2.63;;;;;;;;;;5030457;28;20308;-69
2023/12/27 07:46:53;;;;;;;8.60;3.40;;;;;;;;;;5013299;28;20143;-70
2023/12/27 07:49:19;;;;;;;7.33;2.97;;;;;;;;;;5030702;28;20026;-68
2023/12/27 07:51:44;;;;;;;6.90;4.17;;;;;;;;;;5029108;28;20381;-69
2023/12/27 07:54:10;;;;;;;18.73;4.20;;;;;;;;;;5029027;28;20022;-69
2023/12/27 07:56:37;;;;;;;13.73;3.93;;;;;;;;;;5028849;28;20091;-68
2023/12/27 07:59:04;;;;;;;6.13;2.80;;;;;;;;;;5021570;28;20477;-69
2023/12/27 08:01:31;;;;;;;6.10;2.47;;;;;;;;;;5030131;28;20021;-70
2023/12/27 08:03:59;;;;;;;7.87;2.90;;;;;;;;;;5012112;28;20042;-70
2023/12/27 08:06:26;;;;;;;8.20;3.03;;;;;;;;;;5012120;28;20025;-71
2023/12/27 08:08:57;;;;;;;10.07;3.90;;;;;;;;;;5029922;28;20060;-70
2023/12/27 08:11:23;;;;;;;4.55;2.92;;;;;;;;;;4996199;28;20026;-69
2023/12/27 08:13:49;;;;;;;4.93;2.80;;;;;;;;;;5026475;28;20436;-70
2023/12/27 08:16:15;;;;;;;5.77;2.83;;;;;;;;;;5028571;28;20064;-69
2023/12/27 08:18:41;;;;;;;7.83;3.50;;;;;;;;;;5029324;28;20087;-68
2023/12/27 08:21:08;;;;;;;6.77;2.83;;;;;;;;;;5030487;28;20037;-70
2023/12/27 08:23:37;;;;;;;6.97;3.20;;;;;;;;;;5029051;28;20378;-70
2023/12/27 08:26:07;;;;;;;7.33;3.17;;;;;;;;;;5029906;28;20430;-69
2023/12/27 08:28:37;;;;;;;8.13;2.90;;;;;;;;;;5029357;28;20033;-68
2023/12/27 08:31:06;;;;;;;7.93;2.83;;;;;;;;;;5029457;28;20128;-71
2023/12/27 08:33:35;;;;;;;7.83;3.37;;;;;;;;;;5011073;28;20052;-70
2023/12/27 08:36:01;;;;;;;4.83;2.53;;;;;;;;;;5011525;28;20485;-69
2023/12/27 08:38:27;;;;;;;10.07;3.60;;;;;;;;;;5011804;28;20025;-69
2023/12/27 08:40:53;;;;;;;5.43;3.03;;;;;;;;;;5029164;28;20087;-69
2023/12/27 08:43:18;;;;;;;6.23;2.57;;;;;;;;;;5029569;28;20359;-69
2023/12/27 08:45:45;;;;;;;13.33;3.40;;;;;;;;;;5029379;28;20107;-69
2023/12/27 08:48:10;;;;;;;10.17;3.43;;;;;;;;;;5029491;28;20063;-71
2023/12/27 08:50:36;;;;;;;6.37;3.20;;;;;;;;;;5027871;28;20025;-68
2023/12/27 08:53:02;;;;;;;8.97;4.20;;;;;;;;;;5027885;28;20454;-68
2023/12/27 08:55:27;;;;;;;9.07;3.50;;;;;;;;;;5026975;28;20029;-70
2023/12/27 08:57:54;;;;;;;9.57;3.67;;;;;;;;;;5027884;28;20028;-69
2023/12/27 09:00:20;;;;;;;8.27;3.67;;;;;;;;;;5029344;28;20030;-72
2023/12/27 09:02:47;;;;;;;7.40;3.40;;;;;;;;;;5029934;28;20033;-68
2023/12/27 09:05:12;;;;;;;7.70;2.80;;;;;;;;;;5044094;28;20450;-69
2023/12/27 09:07:38;;;;;;;6.97;3.17;;;;;;;;;;5049414;28;20143;-71
2023/12/27 09:10:05;;;;;;;6.23;3.03;;;;;;;;;;5031087;28;20029;-70
2023/12/27 09:12:32;;;;;;;7.83;2.90;;;;;;;;;;5011452;28;20095;-69
2023/12/27 09:14:59;;;;;;;8.47;3.13;;;;;;;;;;5029208;28;20448;-70
2023/12/27 09:17:24;;;;;;;11.43;3.73;;;;;;;;;;5011151;28;20651;-69
2023/12/27 09:19:50;;;;;;;8.83;3.60;;;;;;;;;;5029185;28;20029;-69
2023/12/27 09:22:15;;;;;;;8.23;4.17;;;;;;;;;;5029343;28;20036;-69
2023/12/27 09:24:42;;;;;;;7.53;3.33;;;;;;;;;;5028753;28;20556;-69
2023/12/27 09:27:07;;;;;;;6.20;3.07;;;;;;;;;;5011083;28;20105;-69
2023/12/27 09:29:35;;;;;;;5.17;3.03;;;;;;;;;;5028776;28;20026;-70
2023/12/27 09:32:00;;;;;;;13.10;4.97;;;;;;;;;;5011381;28;20112;-69
2023/12/27 09:34:26;;;;;;;7.33;3.20;;;;;;;;;;5011227;28;20557;-69
2023/12/27 09:36:52;;;;;;;7.97;3.30;;;;;;;;;;5039666;28;20032;-68
2023/12/27 09:39:18;;;;;;;8.17;3.13;;;;;;;;;;5048570;28;20064;-72
2023/12/27 09:41:43;;;;;;;10.80;2.83;;;;;;;;;;5030664;28;20056;-68
2023/12/27 09:44:18;;;;;;;6.57;3.07;;;;;;;;;;5033065;28;20082;-70
2023/12/27 09:46:43;;;;;;;9.27;3.33;;;;;;;;;;5034840;28;20025;-70
2023/12/27 09:49:11;;;;;;;6.57;3.37;;;;;;;;;;5052790;28;20021;-70
2023/12/27 09:51:39;;;;;;;8.53;3.00;;;;;;;;;;5032238;28;20110;-69
2023/12/27 09:54:04;;;;;;;10.73;3.50;;;;;;;;;;5052869;28;20445;-69
2023/12/27 09:56:31;;;;;;;9.67;3.37;;;;;;;;;;5052023;28;20033;-70
2023/12/27 09:58:59;;;;;;;7.43;3.03;;;;;;;;;;5052816;28;20569;-69
2023/12/27 10:01:29;;;;;;;8.60;3.60;;;;;;;;;;5034189;28;20467;-70
2023/12/27 10:04:06;;;;;;;8.27;3.40;;;;;;;;;;5052275;28;20045;-69
2023/12/27 10:06:43;;;;;;;11.80;5.72;;;;;;;;;;5014656;28;20029;-69
2023/12/27 10:09:09;;;;;;;6.53;3.28;;;;;;;;;;5032393;28;20104;-72
2023/12/27 10:11:35;;;;;;;11.73;3.10;;;;;;;;;;5014288;28;20025;-69
2023/12/27 10:14:04;;;;;;;6.93;3.22;;;;;;;;;;4998140;28;20537;-68
2023/12/27 10:16:30;;;;;;;7.63;3.13;;;;;;;;;;5032043;28;20021;-71
2023/12/27 10:19:00;;;;;;;7.15;2.85;;;;;;;;;;5032842;28;20084;-69
2023/12/27 10:21:26;;;;;;;7.30;3.40;;;;;;;;;;5032367;28;20021;-70
2023/12/27 10:23:53;;;;;;;5.63;2.50;;;;;;;;;;5014196;28;20113;-69
2023/12/27 10:26:19;;;;;;;6.82;3.47;;;;;;;;;;5014219;28;20108;-71
2023/12/27 10:28:45;;;;;;;7.45;2.35;;;;;;;;;;5031716;28;20025;-69
2023/12/27 10:31:12;;;;;;;6.57;3.03;;;;;;;;;;5014112;28;20021;-70
2023/12/27 10:33:43;;;;;;;11.48;2.80;;;;;;;;;;5043267;28;20029;-67
2023/12/27 10:36:09;;;;;;;7.97;2.70;;;;;;;;;;5051724;28;20472;-69
2023/12/27 10:38:35;;;;;;;5.57;2.78;;;;;;;;;;5033077;28;20183;-69
2023/12/27 10:41:06;;;;;;;8.27;3.33;;;;;;;;;;5034000;28;20120;-71
2023/12/27 10:43:32;;;;;;;7.85;3.28;;;;;;;;;;5017416;28;20057;-69
2023/12/27 10:45:58;;;;;;;8.23;3.17;;;;;;;;;;5053337;28;20044;-70
2023/12/27 10:48:27;;;;;;;7.15;2.92;;;;;;;;;;5019206;28;20090;-69
2023/12/27 10:50:53;;;;;;;6.15;3.30;;;;;;;;;;5031117;28;20128;-70
2023/12/27 10:53:19;;;;;;;8.60;3.45;;;;;;;;;;5013329;28;20180;-68
2023/12/27 10:55:48;;;;;;;7.22;3.63;;;;;;;;;;5030280;28;20018;-69
2023/12/27 10:58:21;;;;;;;13.75;3.08;;;;;;;;;;5031337;28;20112;-68
2023/12/27 11:00:47;;;;;;;6.55;2.80;;;;;;;;;;5013430;28;20028;-69
2023/12/27 11:03:14;;;;;;;8.47;3.93;;;;;;;;;;5031725;28;20030;-69
2023/12/27 11:05:40;;;;;;;5.43;3.03;;;;;;;;;;5013388;28;20293;-70
2023/12/27 11:08:06;;;;;;;6.95;2.85;;;;;;;;;;5031739;28;20029;-68
2023/12/27 11:10:37;;;;;;;7.57;3.17;;;;;;;;;;5013696;28;20052;-71
2023/12/27 11:13:06;;;;;;;5.72;2.65;;;;;;;;;;5014199;28;20029;-69
2023/12/27 11:15:34;;;;;;;5.22;3.00;;;;;;;;;;5017184;28;20401;-70
2023/12/27 11:18:00;;;;;;;7.05;2.85;;;;;;;;;;5031526;28;20026;-70
2023/12/27 11:20:26;;;;;;;9.68;2.50;;;;;;;;;;5031071;28;20109;-69
2023/12/27 11:22:52;;;;;;;9.70;3.33;;;;;;;;;;5031297;28;20112;-70
2023/12/27 11:25:17;;;;;;;9.32;3.53;;;;;;;;;;5013322;28;20040;-69
2023/12/27 11:27:43;;;;;;;12.38;3.10;;;;;;;;;;5030697;28;20028;-71
2023/12/27 11:30:12;;;;;;;7.90;2.53;;;;;;;;;;5012322;28;20174;-69
2023/12/27 11:32:40;;;;;;;9.57;2.92;;;;;;;;;;5029334;28;20021;-71
2023/12/27 11:35:22;;;;;;;5.97;2.28;;;;;;;;;;5029680;28;20128;-69
2023/12/27 11:37:50;;;;;;;3.55;2.70;;;;;;;;;;5028709;28;20087;-69
2023/12/27 11:40:35;;;;;;;7.97;2.33;;;;;;;;;;5012943;28;20123;-70
2023/12/27 11:43:03;;;;;;;5.78;2.33;;;;;;;;;;5030593;28;20026;-69
2023/12/27 11:45:56;;;;;;;7.10;2.35;;;;;;;;;;5012924;28;20026;-69
2023/12/27 11:48:22;;;;;;;4.05;2.28;;;;;;;;;;5025180;28;20069;-68
2023/12/27 11:50:48;;;;;;;10.18;2.67;;;;;;;;;;5012250;28;20059;-71
2023/12/27 11:53:15;;;;;;;7.20;2.10;;;;;;;;;;5012571;28;20132;-71
2023/12/27 11:55:41;;;;;;;4.00;2.20;;;;;;;;;;5012607;28;20439;-71
2023/12/27 11:58:09;;;;;;;6.15;3.03;;;;;;;;;;5010620;28;20026;-69
2023/12/27 12:00:36;;;;;;;5.70;2.10;;;;;;;;;;4992929;28;20104;-70
2023/12/27 12:03:12;;;;;;;4.32;2.47;;;;;;;;;;4993978;28;20036;-70
2023/12/27 12:06:05;;;;;;;8.57;2.58;;;;;;;;;;4992940;28;20089;-69
2023/12/27 12:08:41;;;;;;;7.88;3.42;;;;;;;;;;5010227;28;20102;-69
2023/12/27 12:11:11;;;;;;;5.57;2.85;;;;;;;;;;5010467;28;20419;-68
2023/12/27 12:13:39;;;;;;;5.82;3.47;;;;;;;;;;5010290;28;20056;-69
2023/12/27 12:16:09;;;;;;;6.18;2.47;;;;;;;;;;5019270;28;20185;-71
2023/12/27 12:18:36;;;;;;;5.43;2.63;;;;;;;;;;5029986;28;20033;-68
2023/12/27 12:21:03;;;;;;;7.85;3.05;;;;;;;;;;5030108;28;20040;-67
2023/12/27 12:23:33;;;;;;;7.60;2.80;;;;;;;;;;5029878;28;20025;-69
2023/12/27 12:26:00;;;;;;;6.10;3.15;;;;;;;;;;5028476;28;20119;-69
2023/12/27 12:28:29;;;;;;;9.00;4.20;;;;;;;;;;5028400;28;20029;-69
2023/12/27 12:30:59;;;;;;;10.95;4.82;;;;;;;;;;5028320;28;20079;-70
2023/12/27 12:33:41;;;;;;;10.20;3.33;;;;;;;;;;5029433;28;20029;-70
2023/12/27 12:36:07;;;;;;;5.78;2.47;;;;;;;;;;5028794;28;20366;-70
2023/12/27 12:38:32;;;;;;;7.13;2.40;;;;;;;;;;5029521;28;20068;-70
2023/12/27 12:40:58;;;;;;;4.93;2.17;;;;;;;;;;5028372;28;20116;-70
2023/12/27 12:43:24;;;;;;;7.85;2.60;;;;;;;;;;5029486;28;20102;-70
2023/12/27 12:45:50;;;;;;;6.40;2.75;;;;;;;;;;5028189;28;20033;-70
2023/12/27 12:48:17;;;;;;;6.72;2.22;;;;;;;;;;5029585;28;20381;-71
2023/12/27 12:50:42;;;;;;;7.25;3.28;;;;;;;;;;5029087;28;20122;-70
2023/12/27 12:53:18;;;;;;;7.30;2.20;;;;;;;;;;5031674;28;20096;-68
2023/12/27 12:55:44;;;;;;;4.43;2.45;;;;;;;;;;5027981;28;20033;-69
2023/12/27 12:58:14;;;;;;;7.00;2.35;;;;;;;;;;5029111;28;20485;-68
2023/12/27 13:00:40;;;;;;;9.18;2.47;;;;;;;;;;5028008;28;20132;-68
2023/12/27 13:03:07;;;;;;;6.65;2.45;;;;;;;;;;5029268;28;20179;-70
2023/12/27 13:05:33;;;;;;;6.88;2.53;;;;;;;;;;5047142;28;20136;-69
2023/12/27 13:08:07;;;;;;;10.32;2.95;;;;;;;;;;5031222;28;20132;-68
2023/12/27 13:10:34;;;;;;;12.45;3.15;;;;;;;;;;5031154;28;20089;-69
2023/12/27 13:13:00;;;;;;;8.82;2.60;;;;;;;;;;5030476;28;20048;-71
2023/12/27 13:15:26;;;;;;;6.25;2.17;;;;;;;;;;5029739;28;20021;-68
2023/12/27 13:17:52;;;;;;;7.30;2.47;;;;;;;;;;5011002;28;20051;-70
2023/12/27 13:20:19;;;;;;;8.00;2.80;;;;;;;;;;5011357;28;20052;-69
2023/12/27 13:22:45;;;;;;;3.45;2.40;;;;;;;;;;5011316;28;20555;-73
2023/12/27 13:25:12;;;;;;;6.22;2.50;;;;;;;;;;5011975;28;20056;-71
2023/12/27 13:27:38;;;;;;;5.65;2.13;;;;;;;;;;5011149;28;20025;-70
2023/12/27 13:30:08;;;;;;;13.45;3.08;;;;;;;;;;5029287;28;20072;-68
2023/12/27 13:32:34;;;;;;;7.50;2.97;;;;;;;;;;5028611;28;20094;-69
2023/12/27 13:35:00;;;;;;;7.13;3.05;;;;;;;;;;5028937;28;20021;-69
2023/12/27 13:37:25;;;;;;;10.45;5.22;;;;;;;;;;5028843;28;20363;-69
2023/12/27 13:39:52;;;;;;;7.47;2.90;;;;;;;;;;5017414;28;20025;-68
2023/12/27 13:42:19;;;;;;;5.40;2.20;;;;;;;;;;5048967;28;20077;-70
2023/12/27 13:44:45;;;;;;;3.50;2.03;;;;;;;;;;5048796;28;20108;-70
2023/12/27 13:47:12;;;;;;;6.00;2.28;;;;;;;;;;5049074;28;20436;-68
2023/12/27 13:49:37;;;;;;;9.10;2.45;;;;;;;;;;5026831;28;20028;-69
2023/12/27 13:52:06;;;;;;;6.90;3.17;;;;;;;;;;5030702;28;20037;-70
2023/12/27 13:54:31;;;;;;;5.88;3.28;;;;;;;;;;5049046;28;20425;-70
2023/12/27 13:56:57;;;;;;;8.90;3.22;;;;;;;;;;5047529;28;20087;-69
2023/12/27 13:59:22;;;;;;;12.93;3.03;;;;;;;;;;5011272;28;20021;-69
2023/12/27 14:01:48;;;;;;;11.35;2.88;;;;;;;;;;5010891;28;20140;-68
2023/12/27 14:04:13;;;;;;;4.05;2.33;;;;;;;;;;5028551;28;20053;-69
2023/12/27 14:06:39;;;;;;;9.90;2.85;;;;;;;;;;5028766;28;20029;-71
2023/12/27 14:09:08;;;;;;;7.70;2.50;;;;;;;;;;5010609;28;20025;-69
2023/12/27 14:11:34;;;;;;;12.27;2.72;;;;;;;;;;5027224;28;20113;-69
2023/12/27 14:14:03;;;;;;;8.68;2.40;;;;;;;;;;5027346;28;20140;-70
2023/12/27 14:16:30;;;;;;;5.57;2.28;;;;;;;;;;5027465;28;20362;-69
2023/12/27 14:18:56;;;;;;;10.90;3.22;;;;;;;;;;5028599;28;20109;-68
2023/12/27 14:21:22;;;;;;;9.18;4.22;;;;;;;;;;5028045;28;20616;-69
2023/12/27 14:23:49;;;;;;;5.35;2.33;;;;;;;;;;5021779;28;20032;-70
2023/12/27 14:26:19;;;;;;;8.13;2.38;;;;;;;;;;5010542;28;20040;-69
2023/12/27 14:28:44;;;;;;;7.55;2.80;;;;;;;;;;5010231;28;20448;-71
2023/12/27 14:31:15;;;;;;;8.13;2.80;;;;;;;;;;5012779;28;20057;-69
2023/12/27 14:33:41;;;;;;;10.10;2.22;;;;;;;;;;5031705;28;20421;-70
2023/12/27 14:36:07;;;;;;;7.07;2.42;;;;;;;;;;5014517;28;20036;-70
2023/12/27 14:38:32;;;;;;;11.60;3.90;;;;;;;;;;5031808;28;20034;-71